Time;durP1;ratioP1;P1;durP2;ratioP2;P2;SDS_P1;SDS_P2;PMS_P1;PMS_P2;Temp;Humidity;BMP_temperature;BMP_pressure;BME280_temperature;BME280_humidity;BME280_pressure;Samples;Min_cycle;Max_cycle;Signal;HPM_P1;HPM_P2
2022/09/07 00:00:14;;;;;;;8.70;6.10;;;20.80;99.90;;;;;;6157288;23;20407;-89
2022/09/07 00:02:40;;;;;;;8.30;6.20;;;20.70;99.90;;;;;;6167327;23;21075;-88
2022/09/07 00:05:08;;;;;;;8.73;5.87;;;20.70;99.90;;;;;;6165081;23;20470;-89
2022/09/07 00:07:35;;;;;;;6.87;5.50;;;20.70;99.90;;;;;;6155996;23;20403;-89
2022/09/07 00:10:01;;;;;;;7.17;5.57;;;20.70;99.90;;;;;;6156022;23;20403;-89
2022/09/07 00:12:28;;;;;;;7.33;5.20;;;20.70;99.90;;;;;;6176212;23;20402;-87
2022/09/07 00:14:56;;;;;;;4.73;4.23;;;20.80;99.90;;;;;;6158540;23;20403;-89
2022/09/07 00:17:23;;;;;;;6.17;4.50;;;20.80;99.90;;;;;;6155117;23;20449;-89
2022/09/07 00:19:49;;;;;;;5.77;3.43;;;20.90;99.90;;;;;;6155908;23;20758;-89
2022/09/07 00:22:16;;;;;;;4.43;2.80;;;20.90;99.90;;;;;;6155242;23;20411;-89
2022/09/07 00:24:43;;;;;;;6.10;3.43;;;20.80;99.90;;;;;;6155151;23;20422;-88
2022/09/07 00:27:10;;;;;;;5.87;3.27;;;20.80;99.90;;;;;;6156018;23;20420;-89
2022/09/07 00:29:37;;;;;;;5.13;3.30;;;20.80;99.90;;;;;;6156960;23;20418;-90
2022/09/07 00:32:05;;;;;;;4.20;2.83;;;20.80;99.90;;;;;;6156122;23;20395;-90
2022/09/07 00:34:32;;;;;;;3.70;3.10;;;20.80;99.90;;;;;;6170674;23;20395;-87
2022/09/07 00:36:58;;;;;;;9.80;3.57;;;20.80;99.90;;;;;;6182389;23;20498;-88
2022/09/07 00:39:25;;;;;;;4.40;3.40;;;20.90;99.90;;;;;;6170147;23;20490;-89
2022/09/07 00:41:52;;;;;;;4.80;3.70;;;20.90;99.90;;;;;;6160785;23;20407;-89
2022/09/07 00:44:58;;;;;;;3.73;3.33;;;20.90;99.90;;;;;;6168597;23;20396;-88
2022/09/07 00:47:29;;;;;;;4.37;3.07;;;20.90;99.90;;;;;;6182318;23;20375;-89
2022/09/07 00:49:59;;;;;;;4.10;3.70;;;21.00;99.90;;;;;;6158871;23;20380;-90
2022/09/07 00:52:28;;;;;;;3.97;3.40;;;21.00;99.90;;;;;;6156163;23;20446;-88
2022/09/07 00:54:59;;;;;;;5.70;3.40;;;21.00;99.90;;;;;;6170621;23;20398;-89
2022/09/07 00:57:27;;;;;;;4.30;3.50;;;21.00;99.90;;;;;;6167356;23;20932;-90
2022/09/07 00:59:56;;;;;;;5.73;3.47;;;20.90;99.90;;;;;;6156997;23;20439;-89
2022/09/07 01:02:23;;;;;;;6.60;3.50;;;20.80;99.90;;;;;;6156823;23;20415;-88
2022/09/07 01:04:58;;;;;;;5.50;3.90;;;20.80;99.90;;;;;;6155969;23;20437;-89
2022/09/07 01:07:25;;;;;;;6.93;4.20;;;20.80;99.90;;;;;;6164412;23;20403;-90
2022/09/07 01:09:52;;;;;;;6.70;3.40;;;20.70;99.90;;;;;;6171633;23;20700;-88
2022/09/07 01:12:19;;;;;;;7.27;3.67;;;20.70;99.90;;;;;;6179947;23;20410;-88
2022/09/07 01:14:49;;;;;;;7.53;4.67;;;20.70;99.90;;;;;;6172556;23;20415;-90
2022/09/07 01:17:25;;;;;;;6.60;4.33;;;20.70;99.90;;;;;;6162278;23;20450;-89
2022/09/07 01:20:26;;;;;;;7.30;4.00;;;20.70;99.90;;;;;;6157449;23;20391;-89
2022/09/07 01:23:19;;;;;;;4.87;4.40;;;20.70;99.90;;;;;;6157497;23;20418;-89
2022/09/07 01:25:59;;;;;;;6.60;3.80;;;20.80;99.90;;;;;;6156848;23;20435;-90
2022/09/07 01:28:30;;;;;;;4.70;3.80;;;20.80;99.90;;;;;;6157535;23;20474;-89
2022/09/07 01:31:01;;;;;;;5.40;3.77;;;20.90;99.90;;;;;;6156017;23;20761;-89
2022/09/07 01:33:40;;;;;;;7.60;4.23;;;20.90;99.90;;;;;;6158507;23;20420;-87
2022/09/07 01:36:17;;;;;;;3.93;3.53;;;20.90;99.90;;;;;;6164463;23;20415;-88
2022/09/07 01:38:47;;;;;;;6.07;4.07;;;20.90;99.90;;;;;;6159990;23;20395;-89
2022/09/07 01:41:17;;;;;;;5.13;3.20;;;20.90;99.90;;;;;;6156345;23;20474;-89
2022/09/07 01:43:51;;;;;;;5.10;3.70;;;21.00;99.90;;;;;;6158695;23;20403;-89
2022/09/07 01:46:22;;;;;;;7.00;3.77;;;21.00;99.90;;;;;;6155663;23;20756;-88
2022/09/07 01:48:52;;;;;;;5.83;3.70;;;21.10;99.90;;;;;;6182575;23;20398;-88
2022/09/07 01:51:22;;;;;;;3.87;3.57;;;21.10;99.90;;;;;;6183215;23;20423;-87
2022/09/07 01:53:54;;;;;;;4.93;3.50;;;21.10;99.90;;;;;;6170592;23;20391;-87
2022/09/07 01:56:28;;;;;;;6.63;3.83;;;21.10;99.90;;;;;;6182840;23;20442;-86
2022/09/07 01:58:58;;;;;;;8.60;4.20;;;21.20;99.90;;;;;;6177718;23;20398;-88
2022/09/07 02:01:28;;;;;;;5.97;3.80;;;21.20;99.90;;;;;;6157460;23;20886;-87
2022/09/07 02:03:59;;;;;;;6.97;3.70;;;21.20;99.90;;;;;;6167813;23;20395;-87
2022/09/07 02:06:34;;;;;;;6.20;3.40;;;21.20;99.90;;;;;;6171308;23;20492;-87
2022/09/07 02:09:04;;;;;;;4.47;3.40;;;21.20;99.90;;;;;;6159370;23;20415;-89
2022/09/07 02:11:37;;;;;;;5.80;3.73;;;21.30;99.90;;;;;;6166061;23;20402;-90
2022/09/07 02:14:10;;;;;;;5.30;3.83;;;21.30;99.90;;;;;;6157410;23;20395;-89
2022/09/07 02:16:43;;;;;;;5.43;3.90;;;21.30;99.90;;;;;;6156988;23;20505;-89
2022/09/07 02:19:15;;;;;;;6.20;4.10;;;21.30;99.90;;;;;;6156667;23;20395;-88
2022/09/07 02:21:46;;;;;;;8.60;4.23;;;21.20;99.90;;;;;;6156508;23;20410;-89
2022/09/07 02:24:19;;;;;;;6.73;3.73;;;21.20;99.90;;;;;;6159955;23;20396;-89
2022/09/07 02:26:49;;;;;;;4.93;3.83;;;21.30;99.90;;;;;;6157047;23;20437;-88
2022/09/07 02:29:17;;;;;;;8.97;3.50;;;21.30;99.90;;;;;;6157451;23;20419;-89
2022/09/07 02:31:43;;;;;;;5.23;4.03;;;21.30;99.90;;;;;;6156785;23;20415;-89
2022/09/07 02:34:10;;;;;;;5.60;3.63;;;21.30;99.90;;;;;;6157114;23;20407;-88
2022/09/07 02:36:43;;;;;;;10.33;5.10;;;21.30;99.90;;;;;;6155872;23;20777;-89
2022/09/07 02:39:10;;;;;;;6.80;3.90;;;21.30;99.90;;;;;;6157726;23;20391;-90
2022/09/07 02:41:39;;;;;;;6.47;4.40;;;21.30;99.90;;;;;;6157890;23;20407;-89
2022/09/07 02:44:08;;;;;;;6.83;4.67;;;21.30;99.90;;;;;;6175680;23;20391;-86
2022/09/07 02:46:52;;;;;;;7.70;5.37;;;21.20;99.90;;;;;;6183613;23;20437;-88
2022/09/07 02:49:33;;;;;;;5.87;5.27;;;21.10;99.90;;;;;;6184131;23;20412;-87
2022/09/07 02:52:10;;;;;;;6.70;4.30;;;21.10;99.90;;;;;;6184171;23;20388;-87
2022/09/07 02:54:47;;;;;;;5.57;4.20;;;21.10;99.90;;;;;;6176902;23;20442;-90
2022/09/07 02:57:25;;;;;;;6.90;4.27;;;21.00;99.90;;;;;;6163285;23;20756;-90
2022/09/07 03:00:04;;;;;;;6.63;4.20;;;21.00;99.90;;;;;;6156839;23;20749;-90
2022/09/07 03:02:41;;;;;;;8.73;3.90;;;21.00;99.90;;;;;;6157095;23;20388;-90
2022/09/07 03:05:14;;;;;;;7.73;5.20;;;20.90;99.90;;;;;;6156262;23;20403;-90
2022/09/07 03:07:46;;;;;;;9.77;4.40;;;20.90;99.90;;;;;;6157415;23;20388;-90
2022/09/07 03:10:14;;;;;;;5.77;3.80;;;20.90;99.90;;;;;;6156707;23;20392;-90
2022/09/07 03:12:44;;;;;;;6.00;4.53;;;20.90;99.90;;;;;;6157253;23;20908;-90
2022/09/07 03:15:12;;;;;;;5.10;4.00;;;20.90;99.90;;;;;;6161447;23;20435;-90
2022/09/07 03:17:41;;;;;;;7.30;3.80;;;20.80;99.90;;;;;;6162250;23;20447;-90
2022/09/07 03:20:09;;;;;;;4.23;3.20;;;20.80;99.90;;;;;;6159976;23;20399;-90
2022/09/07 03:22:36;;;;;;;5.03;3.47;;;20.80;99.90;;;;;;6156183;23;20396;-90
2022/09/07 03:25:03;;;;;;;4.03;3.53;;;20.80;99.90;;;;;;6156360;23;20411;-90
2022/09/07 03:27:31;;;;;;;4.53;4.03;;;20.80;99.90;;;;;;6156968;23;20458;-89
2022/09/07 03:29:58;;;;;;;6.47;3.80;;;20.80;99.90;;;;;;6156522;23;20411;-89
2022/09/07 03:32:27;;;;;;;6.10;3.40;;;20.80;99.90;;;;;;6160532;23;20847;-90
2022/09/07 03:34:55;;;;;;;4.77;3.50;;;20.80;99.90;;;;;;6161830;23;20392;-89
2022/09/07 03:37:22;;;;;;;4.70;3.87;;;20.70;99.90;;;;;;6162191;23;20522;-90
2022/09/07 03:39:50;;;;;;;6.43;4.03;;;20.70;99.90;;;;;;6160608;23;20422;-90
2022/09/07 03:42:16;;;;;;;4.43;4.03;;;20.60;99.90;;;;;;6157770;23;20863;-89
2022/09/07 03:44:52;;;;;;;5.73;4.33;;;20.60;99.90;;;;;;6157856;23;20414;-90
2022/09/07 03:47:19;;;;;;;7.57;4.13;;;20.60;99.90;;;;;;6177013;23;20656;-89
2022/09/07 03:49:47;;;;;;;6.77;4.77;;;20.60;99.90;;;;;;6178110;23;20446;-90
2022/09/07 03:52:15;;;;;;;7.13;4.10;;;20.50;99.90;;;;;;6162107;23;20408;-89
2022/09/07 03:54:42;;;;;;;5.30;3.90;;;20.50;99.90;;;;;;6159481;23;20422;-89
2022/09/07 03:57:09;;;;;;;3.93;3.53;;;20.40;99.90;;;;;;6174991;23;20439;-88
2022/09/07 03:59:36;;;;;;;7.80;4.70;;;20.40;99.90;;;;;;6175974;23;20400;-89
2022/09/07 04:02:03;;;;;;;6.27;3.93;;;20.40;99.90;;;;;;6181172;23;20411;-87
2022/09/07 04:04:30;;;;;;;4.23;3.30;;;20.30;99.90;;;;;;6177854;23;20497;-88
2022/09/07 04:06:57;;;;;;;5.50;3.60;;;20.30;99.90;;;;;;6170230;23;20487;-89
2022/09/07 04:09:25;;;;;;;9.70;4.27;;;20.30;99.90;;;;;;6163089;23;20403;-90
2022/09/07 04:11:51;;;;;;;6.13;4.63;;;20.20;99.90;;;;;;6169788;23;20413;-89
2022/09/07 04:14:18;;;;;;;5.27;4.20;;;20.20;99.90;;;;;;6182050;23;20494;-89
2022/09/07 04:16:47;;;;;;;5.43;4.40;;;20.20;99.90;;;;;;6180963;23;20420;-89
2022/09/07 04:19:14;;;;;;;9.47;4.60;;;20.30;99.90;;;;;;6167601;23;21045;-90
2022/09/07 04:21:45;;;;;;;8.23;4.53;;;20.30;99.90;;;;;;6158781;23;20408;-90
2022/09/07 04:24:12;;;;;;;6.40;4.90;;;20.30;99.90;;;;;;6158505;23;20396;-89
2022/09/07 04:26:42;;;;;;;7.67;4.70;;;20.30;99.90;;;;;;6156180;23;20427;-89
2022/09/07 04:29:12;;;;;;;11.97;6.50;;;20.30;99.90;;;;;;6175342;23;20396;-88
2022/09/07 04:31:39;;;;;;;13.47;7.37;;;20.20;99.90;;;;;;6164927;23;20762;-90
2022/09/07 04:34:07;;;;;;;14.77;7.80;;;20.20;99.90;;;;;;6155177;23;20910;-91
2022/09/07 04:36:34;;;;;;;15.70;7.83;;;20.10;99.90;;;;;;6155119;23;20431;-90
2022/09/07 04:39:04;;;;;;;13.23;10.07;;;20.10;99.90;;;;;;6154176;23;20525;-90
2022/09/07 04:41:33;;;;;;;15.63;10.60;;;20.00;99.90;;;;;;6159467;23;20391;-89
2022/09/07 04:44:49;;;;;;;15.87;11.43;;;20.00;99.90;;;;;;6156110;23;20419;-90
2022/09/07 04:47:18;;;;;;;15.30;10.60;;;20.00;99.90;;;;;;6088739;23;20431;-90
2022/09/07 04:49:50;;;;;;;15.97;10.80;;;20.00;99.90;;;;;;6160320;23;20395;-90
2022/09/07 04:52:20;;;;;;;16.70;11.23;;;20.00;99.90;;;;;;6155253;23;20407;-89
2022/09/07 04:54:49;;;;;;;18.07;12.37;;;20.00;99.90;;;;;;6161112;23;20843;-89
2022/09/07 04:57:17;;;;;;;18.77;11.30;;;19.90;99.90;;;;;;6160612;23;20447;-89
2022/09/07 04:59:43;;;;;;;15.23;10.63;;;19.90;99.90;;;;;;6164629;23;20415;-89
2022/09/07 05:02:11;;;;;;;13.00;10.40;;;19.80;99.90;;;;;;6167077;23;20402;-89
2022/09/07 05:04:40;;;;;;;22.27;10.77;;;19.70;99.90;;;;;;6162675;23;20454;-90
2022/09/07 05:07:07;;;;;;;21.10;10.73;;;19.80;99.90;;;;;;6156495;23;20451;-89
2022/09/07 05:09:34;;;;;;;16.90;8.80;;;19.70;99.90;;;;;;6156913;23;20395;-89
2022/09/07 05:12:01;;;;;;;13.13;7.77;;;19.70;99.90;;;;;;6155754;23;20421;-89
2022/09/07 05:14:28;;;;;;;12.27;8.60;;;19.70;99.90;;;;;;6154943;23;20753;-89
2022/09/07 05:16:54;;;;;;;12.50;9.43;;;19.70;99.90;;;;;;6155442;23;20910;-89
2022/09/07 05:19:21;;;;;;;13.17;9.43;;;19.70;99.90;;;;;;6155486;23;20455;-89
2022/09/07 05:21:49;;;;;;;13.57;8.87;;;19.60;99.90;;;;;;6159266;23;20430;-89
2022/09/07 05:24:16;;;;;;;17.20;9.53;;;19.70;99.90;;;;;;6165625;23;20418;-89
2022/09/07 05:26:43;;;;;;;14.00;8.87;;;19.60;99.90;;;;;;6155710;23;20422;-89
2022/09/07 05:29:10;;;;;;;13.60;9.13;;;19.60;99.90;;;;;;6157643;23;20494;-89
2022/09/07 05:31:37;;;;;;;17.93;9.97;;;19.60;99.90;;;;;;6156186;23;20571;-89
2022/09/07 05:34:04;;;;;;;20.13;9.97;;;19.70;99.90;;;;;;6156742;23;20414;-89
2022/09/07 05:36:31;;;;;;;13.97;8.73;;;19.70;99.90;;;;;;6158456;23;20755;-89
2022/09/07 05:38:59;;;;;;;13.47;9.47;;;19.70;99.90;;;;;;6159158;23;20449;-89
2022/09/07 05:41:27;;;;;;;13.67;8.53;;;19.80;99.90;;;;;;6159068;23;20473;-89
2022/09/07 05:43:54;;;;;;;17.63;9.27;;;19.80;99.90;;;;;;6161051;23;20410;-89
2022/09/07 05:46:21;;;;;;;17.27;9.70;;;19.90;99.90;;;;;;6160631;23;20415;-89
2022/09/07 05:48:48;;;;;;;16.57;8.83;;;20.00;99.90;;;;;;6159358;23;20502;-89
2022/09/07 05:51:16;;;;;;;12.10;9.57;;;20.10;99.90;;;;;;6183127;23;20527;-88
2022/09/07 05:53:44;;;;;;;14.07;8.50;;;20.10;99.90;;;;;;6169916;23;20415;-88
2022/09/07 05:56:13;;;;;;;10.67;8.50;;;20.20;99.90;;;;;;6158892;23;20426;-89
2022/09/07 05:58:40;;;;;;;11.47;7.70;;;20.30;99.90;;;;;;6167372;23;20457;-89
2022/09/07 06:01:09;;;;;;;15.07;7.80;;;20.30;99.90;;;;;;6175262;23;20415;-87
2022/09/07 06:03:37;;;;;;;13.27;8.60;;;20.40;99.90;;;;;;6181187;23;20395;-89
2022/09/07 06:06:06;;;;;;;6.87;6.13;;;20.40;99.90;;;;;;6163746;23;20522;-89
2022/09/07 06:08:35;;;;;;;10.63;6.37;;;20.50;99.90;;;;;;6157982;23;20415;-89
2022/09/07 06:11:06;;;;;;;10.00;5.90;;;20.50;99.90;;;;;;6159399;23;20902;-88
2022/09/07 06:13:35;;;;;;;7.10;6.10;;;20.60;99.90;;;;;;6177302;23;20396;-89
2022/09/07 06:16:08;;;;;;;7.93;6.10;;;20.70;99.90;;;;;;6157285;23;20506;-90
2022/09/07 06:18:40;;;;;;;12.00;6.70;;;20.90;99.90;;;;;;6158839;23;20477;-88
2022/09/07 06:21:12;;;;;;;12.30;6.07;;;21.00;99.90;;;;;;6163689;23;20415;-89
2022/09/07 06:23:43;;;;;;;8.37;4.90;;;21.20;99.90;;;;;;6180668;23;20399;-88
2022/09/07 06:26:11;;;;;;;9.10;5.60;;;21.40;99.90;;;;;;6172763;23;20922;-90
2022/09/07 06:28:41;;;;;;;10.63;6.23;;;21.40;99.90;;;;;;6158427;23;20396;-89
2022/09/07 06:31:11;;;;;;;10.60;6.47;;;21.50;99.90;;;;;;6158055;23;20755;-89
2022/09/07 06:33:38;;;;;;;7.00;4.87;;;21.60;99.90;;;;;;6158329;23;20402;-90
2022/09/07 06:36:09;;;;;;;8.57;5.40;;;21.70;99.90;;;;;;6160821;23;20500;-90
2022/09/07 06:38:37;;;;;;;7.63;5.27;;;21.60;99.90;;;;;;6174869;23;20422;-89
2022/09/07 06:41:08;;;;;;;9.60;5.47;;;21.70;99.90;;;;;;6183464;23;20414;-88
2022/09/07 06:43:36;;;;;;;7.87;5.43;;;21.80;99.90;;;;;;6167695;23;20533;-90
2022/09/07 06:46:05;;;;;;;6.80;4.20;;;22.00;99.90;;;;;;6156813;23;20433;-89
2022/09/07 06:48:35;;;;;;;13.30;4.07;;;22.10;99.90;;;;;;6157070;23;20486;-90
2022/09/07 06:51:06;;;;;;;8.40;4.53;;;22.30;99.90;;;;;;6158681;23;20436;-89
2022/09/07 06:53:39;;;;;;;5.93;4.30;;;22.50;99.90;;;;;;6159429;23;20442;-89
2022/09/07 06:56:07;;;;;;;7.57;4.30;;;22.80;99.90;;;;;;6159401;23;20459;-88
2022/09/07 06:58:37;;;;;;;8.63;4.47;;;22.90;99.90;;;;;;6159128;23;20530;-90
2022/09/07 07:01:09;;;;;;;8.17;3.97;;;23.00;99.90;;;;;;6157216;23;20466;-89
2022/09/07 07:03:36;;;;;;;7.97;5.00;;;23.00;99.90;;;;;;6181333;23;20392;-87
2022/09/07 07:06:06;;;;;;;6.60;3.70;;;23.10;99.90;;;;;;6179345;23;20416;-90
2022/09/07 07:08:37;;;;;;;6.47;4.70;;;23.10;99.90;;;;;;6158575;23;20418;-89
2022/09/07 07:11:06;;;;;;;11.70;5.00;;;23.10;99.90;;;;;;6159352;23;20396;-90
2022/09/07 07:13:34;;;;;;;8.57;5.00;;;23.10;99.90;;;;;;6159272;23;20422;-91
2022/09/07 07:16:04;;;;;;;9.73;4.60;;;23.10;99.90;;;;;;6167054;23;20443;-88
2022/09/07 07:18:34;;;;;;;8.03;4.80;;;23.60;99.90;;;;;;6181921;23;20479;-89
2022/09/07 07:21:02;;;;;;;6.93;4.13;;;24.70;99.90;;;;;;6165825;23;20406;-90
2022/09/07 07:23:29;;;;;;;6.17;3.73;;;26.00;99.90;;;;;;6162550;23;20412;-89
2022/09/07 07:26:00;;;;;;;4.63;4.17;;;26.90;99.20;;;;;;6170166;23;20411;-90
2022/09/07 07:28:27;;;;;;;7.90;4.07;;;27.00;98.10;;;;;;6162972;23;20438;-90
2022/09/07 07:30:58;;;;;;;6.93;3.97;;;26.70;97.90;;;;;;6166134;23;20429;-89
2022/09/07 07:33:25;;;;;;;9.83;3.90;;;27.10;97.90;;;;;;6158839;23;20388;-89
2022/09/07 07:35:53;;;;;;;5.83;4.30;;;27.40;96.80;;;;;;6161255;23;20429;-88
2022/09/07 07:38:20;;;;;;;5.27;4.07;;;27.10;96.50;;;;;;6160781;23;20830;-90
2022/09/07 07:40:52;;;;;;;5.97;4.30;;;26.50;97.20;;;;;;6179073;23;20412;-88
2022/09/07 07:43:19;;;;;;;7.60;4.73;;;26.20;98.20;;;;;;6179032;23;20392;-89
2022/09/07 07:45:46;;;;;;;11.03;5.60;;;26.20;98.80;;;;;;6162426;23;20430;-91
2022/09/07 07:48:13;;;;;;;4.53;3.77;;;26.00;99.40;;;;;;6162005;23;20399;-89
2022/09/07 07:50:40;;;;;;;7.10;4.40;;;26.10;98.20;;;;;;6167965;23;20914;-89
2022/09/07 07:53:08;;;;;;;7.97;4.53;;;27.00;98.20;;;;;;6162758;23;20434;-89
2022/09/07 07:55:36;;;;;;;6.13;4.60;;;27.80;96.40;;;;;;6163925;23;20438;-89
2022/09/07 07:58:03;;;;;;;12.63;4.50;;;27.70;95.10;;;;;;6159574;23;20902;-88
2022/09/07 08:00:30;;;;;;;7.23;4.77;;;27.40;95.60;;;;;;6157678;23;20413;-89
2022/09/07 08:02:56;;;;;;;8.13;3.97;;;27.10;95.70;;;;;;6159200;23;20894;-90
2022/09/07 08:05:23;;;;;;;8.37;4.47;;;27.10;96.20;;;;;;6165852;23;20434;-89
2022/09/07 08:07:50;;;;;;;7.93;4.83;;;27.00;96.60;;;;;;6162843;23;20788;-90
2022/09/07 08:10:18;;;;;;;13.73;5.07;;;26.90;97.00;;;;;;6156828;23;20413;-90
2022/09/07 08:12:46;;;;;;;5.83;3.50;;;27.20;96.80;;;;;;6158040;23;20419;-90
2022/09/07 08:15:12;;;;;;;7.20;3.00;;;27.00;96.10;;;;;;6159182;23;20492;-90
2022/09/07 08:17:39;;;;;;;4.77;3.20;;;26.70;95.40;;;;;;6157911;23;20408;-90
2022/09/07 08:20:07;;;;;;;3.90;2.70;;;26.70;95.30;;;;;;6157698;23;20962;-90
2022/09/07 08:22:34;;;;;;;6.07;3.33;;;26.50;95.30;;;;;;6156580;23;20430;-90
2022/09/07 08:25:01;;;;;;;4.70;3.40;;;26.30;95.20;;;;;;6156986;23;20422;-90
2022/09/07 08:27:29;;;;;;;7.17;2.87;;;26.60;95.70;;;;;;6156713;23;20936;-90
2022/09/07 08:29:55;;;;;;;6.30;3.13;;;27.00;94.70;;;;;;6156481;23;20418;-89
2022/09/07 08:32:22;;;;;;;5.70;3.30;;;28.10;93.30;;;;;;6157084;23;20416;-90
2022/09/07 08:34:49;;;;;;;3.70;2.60;;;28.60;91.30;;;;;;6158083;23;20418;-91
2022/09/07 08:37:16;;;;;;;4.23;2.20;;;29.10;90.30;;;;;;6160806;23;20466;-88
2022/09/07 08:39:42;;;;;;;6.27;2.80;;;29.30;88.30;;;;;;6161000;23;20448;-88
2022/09/07 08:42:32;;;;;;;6.73;3.03;;;30.80;85.20;;;;;;6157117;23;20409;-89
2022/09/07 08:45:05;;;;;;;6.80;2.60;;;33.50;75.50;;;;;;6156107;23;20401;-89
2022/09/07 08:47:37;;;;;;;4.50;2.30;;;35.50;64.00;;;;;;6155987;23;20394;-89
2022/09/07 08:50:09;;;;;;;4.23;2.60;;;34.80;60.90;;;;;;6159531;23;20719;-89
2022/09/07 08:52:47;;;;;;;4.97;3.07;;;35.00;61.30;;;;;;6180896;23;20420;-88
2022/09/07 08:55:19;;;;;;;4.50;2.77;;;36.00;58.00;;;;;;6166758;23;20424;-90
2022/09/07 08:58:16;;;;;;;6.67;2.87;;;37.50;56.10;;;;;;6164215;23;20426;-90
2022/09/07 09:00:52;;;;;;;4.20;2.10;;;38.80;51.70;;;;;;6175732;23;20750;-88
2022/09/07 09:03:30;;;;;;;5.67;2.80;;;40.00;49.10;;;;;;6175104;23;20391;-89
2022/09/07 09:06:04;;;;;;;6.67;3.50;;;40.60;46.90;;;;;;6171754;23;20420;-89
2022/09/07 09:08:43;;;;;;;5.00;2.60;;;40.70;46.30;;;;;;6164770;23;20466;-88
2022/09/07 09:11:20;;;;;;;4.03;2.53;;;41.10;45.40;;;;;;6176126;23;20441;-89
2022/09/07 09:13:59;;;;;;;4.07;2.40;;;41.90;43.30;;;;;;6162854;23;20376;-89
2022/09/07 09:16:33;;;;;;;10.53;3.47;;;42.20;42.40;;;;;;6158300;23;20416;-89
2022/09/07 09:19:14;;;;;;;5.73;2.57;;;42.90;41.40;;;;;;6158445;23;20431;-88
2022/09/07 09:21:42;;;;;;;7.13;3.37;;;43.40;40.10;;;;;;6157792;23;20737;-88
2022/09/07 09:24:15;;;;;;;3.37;2.40;;;43.30;39.90;;;;;;6163574;23;20408;-88
2022/09/07 09:26:45;;;;;;;6.37;3.20;;;42.80;39.80;;;;;;6162235;23;20427;-88
2022/09/07 09:29:13;;;;;;;7.60;3.03;;;43.10;39.70;;;;;;6160083;23;20388;-89
2022/09/07 09:31:41;;;;;;;3.90;2.40;;;42.20;39.90;;;;;;6173023;23;20407;-88
2022/09/07 09:34:11;;;;;;;8.07;2.70;;;42.00;40.70;;;;;;6168865;23;20898;-89
2022/09/07 09:36:44;;;;;;;3.30;2.47;;;42.30;40.10;;;;;;6158111;23;20930;-78
2022/09/07 09:39:29;;;;;;;5.00;3.07;;;41.80;40.70;;;;;;6156640;23;20558;-80
2022/09/07 09:41:59;;;;;;;6.47;2.93;;;40.20;42.30;;;;;;6157170;23;20415;-78
2022/09/07 09:44:31;;;;;;;4.53;2.50;;;39.60;43.80;;;;;;6155905;23;20733;-77
2022/09/07 09:46:59;;;;;;;4.40;2.20;;;40.40;42.60;;;;;;6156581;23;20427;-78
2022/09/07 09:49:36;;;;;;;4.70;2.70;;;40.70;41.60;;;;;;6156672;23;20407;-78
2022/09/07 09:52:04;;;;;;;5.20;2.67;;;39.90;42.50;;;;;;6155346;23;20437;-77
2022/09/07 09:54:35;;;;;;;4.33;2.90;;;38.60;44.20;;;;;;6156253;23;20478;-78
2022/09/07 09:57:02;;;;;;;4.80;3.07;;;38.10;45.30;;;;;;6156192;23;20433;-77
2022/09/07 09:59:31;;;;;;;4.00;2.90;;;38.10;45.50;;;;;;6155967;23;21017;-78
2022/09/07 10:02:16;;;;;;;4.03;2.60;;;38.40;45.40;;;;;;6156760;23;20449;-78
2022/09/07 10:04:43;;;;;;;6.47;3.43;;;39.10;44.70;;;;;;6155406;23;20906;-77
2022/09/07 10:07:19;;;;;;;3.40;2.93;;;38.80;44.20;;;;;;6156189;23;20442;-77
2022/09/07 10:09:50;;;;;;;3.90;2.53;;;37.10;46.00;;;;;;6155008;23;20402;-79
2022/09/07 10:12:26;;;;;;;4.50;2.77;;;35.40;48.20;;;;;;6155532;23;20463;-77
2022/09/07 10:14:55;;;;;;;9.77;4.10;;;34.00;50.70;;;;;;6155893;23;20401;-78
2022/09/07 10:17:28;;;;;;;6.57;3.27;;;33.50;52.30;;;;;;6157634;23;20507;-78
2022/09/07 10:19:59;;;;;;;6.80;3.47;;;35.80;51.10;;;;;;6154832;23;20430;-76
2022/09/07 10:22:32;;;;;;;5.23;3.13;;;38.60;46.10;;;;;;6155815;23;20400;-77
2022/09/07 10:25:00;;;;;;;4.63;3.43;;;37.30;46.60;;;;;;6157122;23;20394;-77
2022/09/07 10:27:33;;;;;;;6.63;2.93;;;36.80;48.10;;;;;;6157477;23;20416;-77
2022/09/07 10:30:01;;;;;;;6.70;3.20;;;37.50;47.50;;;;;;6156655;23;20425;-77
2022/09/07 10:32:44;;;;;;;6.27;3.60;;;36.40;47.80;;;;;;6157357;23;20382;-76
2022/09/07 10:35:17;;;;;;;6.27;4.00;;;35.20;50.40;;;;;;6155195;23;20401;-77
2022/09/07 10:37:52;;;;;;;11.63;10.53;;;34.20;51.70;;;;;;6155564;23;20864;-77
2022/09/07 10:40:27;;;;;;;7.90;4.63;;;33.00;54.30;;;;;;6155259;23;20733;-77
2022/09/07 10:43:00;;;;;;;5.40;4.13;;;32.20;56.20;;;;;;6157003;23;20379;-76
2022/09/07 10:45:36;;;;;;;7.30;3.30;;;31.70;57.70;;;;;;6156712;23;20441;-77
2022/09/07 10:48:11;;;;;;;5.20;3.80;;;31.20;58.70;;;;;;6161037;23;20717;-75
2022/09/07 10:50:47;;;;;;;7.23;3.20;;;30.80;59.50;;;;;;6158324;23;20385;-77
2022/09/07 10:53:30;;;;;;;4.30;3.57;;;30.60;60.80;;;;;;6157254;23;20395;-78
2022/09/07 10:56:05;;;;;;;9.03;3.70;;;30.40;60.90;;;;;;6157713;23;20429;-77
2022/09/07 10:58:44;;;;;;;4.87;2.80;;;30.30;62.10;;;;;;6154911;23;20399;-78
2022/09/07 11:01:20;;;;;;;7.00;3.40;;;30.10;62.50;;;;;;6155533;23;20922;-77
2022/09/07 11:03:59;;;;;;;5.10;3.77;;;30.10;63.60;;;;;;6155818;23;20425;-79
2022/09/07 11:06:31;;;;;;;6.10;3.13;;;30.00;64.00;;;;;;6155074;23;20415;-76
2022/09/07 11:09:41;;;;;;;4.67;3.70;;;30.00;63.50;;;;;;6155379;23;20885;-77
2022/09/07 11:12:14;;;;;;;7.33;3.80;;;29.90;64.60;;;;;;6155480;23;20393;-77
2022/09/07 11:14:45;;;;;;;6.50;4.07;;;29.70;67.00;;;;;;6155200;23;20389;-77
2022/09/07 11:17:16;;;;;;;4.80;3.43;;;29.50;68.70;;;;;;6156266;23;20493;-76
2022/09/07 11:19:53;;;;;;;6.17;3.87;;;29.20;69.30;;;;;;6156053;23;20434;-77
2022/09/07 11:22:30;;;;;;;6.00;3.77;;;29.10;71.40;;;;;;6155663;23;20436;-77
2022/09/07 11:25:03;;;;;;;4.97;3.83;;;30.20;70.60;;;;;;6156144;23;20395;-78
2022/09/07 11:27:36;;;;;;;7.00;3.63;;;33.80;60.10;;;;;;6159597;23;20904;-78
2022/09/07 11:30:05;;;;;;;5.90;3.60;;;37.40;53.40;;;;;;6156032;23;20421;-77
2022/09/07 11:32:36;;;;;;;6.47;3.20;;;40.20;47.60;;;;;;6156541;23;20417;-77
2022/09/07 11:35:15;;;;;;;5.90;3.27;;;41.70;43.90;;;;;;6156343;23;20392;-77
2022/09/07 11:37:46;;;;;;;6.93;3.27;;;41.80;41.90;;;;;;6155892;23;20883;-77
2022/09/07 11:40:21;;;;;;;5.23;3.20;;;42.00;41.60;;;;;;6156611;23;20450;-77
2022/09/07 11:42:52;;;;;;;7.17;3.53;;;42.10;40.70;;;;;;6154826;23;20918;-77
2022/09/07 11:45:23;;;;;;;6.30;2.70;;;43.50;39.80;;;;;;6154024;23;20976;-77
2022/09/07 11:47:55;;;;;;;4.80;2.80;;;44.60;38.30;;;;;;6151877;23;20420;-77
2022/09/07 11:50:24;;;;;;;4.43;3.17;;;44.10;37.20;;;;;;6154954;23;20785;-77
2022/09/07 11:52:53;;;;;;;4.43;2.80;;;43.60;38.20;;;;;;6154339;23;20762;-78
2022/09/07 11:55:26;;;;;;;3.60;2.70;;;44.40;36.80;;;;;;6153976;23;20439;-77
2022/09/07 11:58:13;;;;;;;6.40;3.60;;;44.00;36.50;;;;;;6153457;23;20403;-77
2022/09/07 12:00:50;;;;;;;5.57;2.67;;;44.40;36.20;;;;;;6154730;23;20467;-78
2022/09/07 12:03:31;;;;;;;4.40;2.50;;;44.10;35.60;;;;;;6155572;23;20887;-78
2022/09/07 12:06:25;;;;;;;7.43;2.80;;;42.90;35.50;;;;;;6155922;23;20482;-78
2022/09/07 12:09:09;;;;;;;3.37;3.07;;;40.30;37.90;;;;;;6146589;23;20490;-77
2022/09/07 12:12:16;;;;;;;3.73;2.40;;;39.00;40.50;;;;;;6155410;23;20392;-78
2022/09/07 12:14:56;;;;;;;4.30;2.43;;;40.80;38.80;;;;;;6094659;23;20423;-77
2022/09/07 12:17:43;;;;;;;4.00;2.53;;;40.90;37.90;;;;;;6153919;23;20739;-78
2022/09/07 12:20:14;;;;;;;3.60;2.50;;;41.70;37.40;;;;;;6154108;23;20450;-76
2022/09/07 12:22:58;;;;;;;6.10;2.80;;;41.90;35.50;;;;;;6153767;23;20924;-76
2022/09/07 12:25:27;;;;;;;2.83;2.27;;;43.20;35.10;;;;;;6153238;23;20433;-77
2022/09/07 12:27:53;;;;;;;7.87;2.83;;;43.70;34.00;;;;;;6153134;23;20491;-77
2022/09/07 12:30:58;;;;;;;6.30;2.73;;;44.40;34.60;;;;;;6152569;23;20503;-77
2022/09/07 12:33:27;;;;;;;4.10;2.37;;;44.60;33.50;;;;;;6152870;23;20399;-79
2022/09/07 12:35:57;;;;;;;4.50;2.50;;;44.10;34.50;;;;;;6154946;23;20511;-77
2022/09/07 12:39:17;;;;;;;5.40;3.20;;;42.80;34.50;;;;;;6153141;23;20392;-76
2022/09/07 12:41:46;;;;;;;4.50;2.30;;;39.90;38.00;;;;;;6153452;23;20379;-76
2022/09/07 12:44:22;;;;;;;7.47;3.40;;;38.60;40.60;;;;;;6151439;23;20795;-76
2022/09/07 12:47:00;;;;;;;3.73;2.33;;;39.80;39.80;;;;;;6153307;23;20430;-76
2022/09/07 12:50:10;;;;;;;4.63;2.77;;;40.60;38.10;;;;;;6153983;23;20392;-76
2022/09/07 12:53:13;;;;;;;5.47;2.07;;;40.10;37.90;;;;;;6131407;23;20415;-77
2022/09/07 12:56:05;;;;;;;5.13;2.60;;;39.00;39.10;;;;;;6153581;23;20981;-78
2022/09/07 12:58:46;;;;;;;5.60;2.97;;;37.70;40.40;;;;;;6141338;23;20418;-77
2022/09/07 13:01:27;;;;;;;4.03;2.50;;;36.80;42.70;;;;;;6155347;23;20429;-77
2022/09/07 13:04:21;;;;;;;4.67;3.03;;;36.40;42.60;;;;;;6154821;23;20434;-77
2022/09/07 13:07:03;;;;;;;5.27;2.83;;;35.10;44.10;;;;;;6154432;23;20437;-78
2022/09/07 13:09:32;;;;;;;3.90;2.30;;;34.60;45.30;;;;;;6154501;23;20868;-77